sensor_id;sensor_type;location;lat;lon;timestamp;P1;durP1;ratioP1;P2;durP2;ratioP2
11735;SDS011;5924;51.398;7.088;2023-11-19T00:00:24;3.73;;;3.63;;
11735;SDS011;5924;51.398;7.088;2023-11-19T00:02:50;3.97;;;3.83;;
11735;SDS011;5924;51.398;7.088;2023-11-19T00:05:16;3.60;;;3.50;;
11735;SDS011;5924;51.398;7.088;2023-11-19T00:07:42;5.00;;;4.60;;
11735;SDS011;5924;51.398;7.088;2023-11-19T00:10:08;4.30;;;4.07;;
11735;SDS011;5924;51.398;7.088;2023-11-19T00:12:40;5.20;;;4.90;;
11735;SDS011;5924;51.398;7.088;2023-11-19T00:15:07;4.10;;;4.00;;
11735;SDS011;5924;51.398;7.088;2023-11-19T00:17:39;4.83;;;4.73;;
11735;SDS011;5924;51.398;7.088;2023-11-19T00:20:09;5.43;;;4.93;;
11735;SDS011;5924;51.398;7.088;2023-11-19T00:22:39;5.73;;;5.43;;
11735;SDS011;5924;51.398;7.088;2023-11-19T00:25:05;5.30;;;5.00;;
11735;SDS011;5924;51.398;7.088;2023-11-19T00:27:31;4.93;;;4.60;;
11735;SDS011;5924;51.398;7.088;2023-11-19T00:29:57;5.20;;;5.00;;
11735;SDS011;5924;51.398;7.088;2023-11-19T00:32:22;5.13;;;4.80;;
11735;SDS011;5924;51.398;7.088;2023-11-19T00:34:48;5.90;;;5.40;;
11735;SDS011;5924;51.398;7.088;2023-11-19T00:37:14;4.53;;;4.37;;
11735;SDS011;5924;51.398;7.088;2023-11-19T00:39:40;4.63;;;4.40;;
11735;SDS011;5924;51.398;7.088;2023-11-19T00:42:06;4.73;;;4.53;;
11735;SDS011;5924;51.398;7.088;2023-11-19T00:44:32;6.57;;;4.00;;
11735;SDS011;5924;51.398;7.088;2023-11-19T00:46:58;4.70;;;4.50;;
11735;SDS011;5924;51.398;7.088;2023-11-19T00:49:25;5.40;;;5.20;;
11735;SDS011;5924;51.398;7.088;2023-11-19T00:51:50;6.43;;;5.07;;
11735;SDS011;5924;51.398;7.088;2023-11-19T00:54:16;4.47;;;4.27;;
11735;SDS011;5924;51.398;7.088;2023-11-19T00:56:42;4.27;;;3.97;;
11735;SDS011;5924;51.398;7.088;2023-11-19T00:59:08;4.20;;;4.00;;
11735;SDS011;5924;51.398;7.088;2023-11-19T01:01:33;6.23;;;5.63;;
11735;SDS011;5924;51.398;7.088;2023-11-19T01:03:59;5.47;;;4.80;;
11735;SDS011;5924;51.398;7.088;2023-11-19T01:06:31;4.07;;;3.97;;
11735;SDS011;5924;51.398;7.088;2023-11-19T01:08:57;7.47;;;4.40;;
11735;SDS011;5924;51.398;7.088;2023-11-19T01:11:23;4.37;;;4.17;;
11735;SDS011;5924;51.398;7.088;2023-11-19T01:13:50;4.40;;;4.20;;
11735;SDS011;5924;51.398;7.088;2023-11-19T01:16:17;4.20;;;3.90;;
11735;SDS011;5924;51.398;7.088;2023-11-19T01:18:43;4.23;;;3.93;;
11735;SDS011;5924;51.398;7.088;2023-11-19T01:21:09;3.70;;;3.50;;
11735;SDS011;5924;51.398;7.088;2023-11-19T01:23:35;4.50;;;3.47;;
11735;SDS011;5924;51.398;7.088;2023-11-19T01:26:02;2.90;;;2.90;;
11735;SDS011;5924;51.398;7.088;2023-11-19T01:28:28;3.83;;;2.53;;
11735;SDS011;5924;51.398;7.088;2023-11-19T01:30:53;2.97;;;2.77;;
11735;SDS011;5924;51.398;7.088;2023-11-19T01:33:19;4.13;;;2.27;;
11735;SDS011;5924;51.398;7.088;2023-11-19T01:35:46;2.53;;;2.07;;
11735;SDS011;5924;51.398;7.088;2023-11-19T01:38:12;3.73;;;2.60;;
11735;SDS011;5924;51.398;7.088;2023-11-19T01:40:37;2.93;;;2.83;;
11735;SDS011;5924;51.398;7.088;2023-11-19T01:43:03;2.70;;;2.60;;
11735;SDS011;5924;51.398;7.088;2023-11-19T01:45:29;3.17;;;2.97;;
11735;SDS011;5924;51.398;7.088;2023-11-19T01:47:56;3.00;;;2.87;;
11735;SDS011;5924;51.398;7.088;2023-11-19T01:50:23;3.40;;;3.40;;
11735;SDS011;5924;51.398;7.088;2023-11-19T01:52:53;3.63;;;3.33;;
11735;SDS011;5924;51.398;7.088;2023-11-19T01:55:20;5.50;;;3.17;;
11735;SDS011;5924;51.398;7.088;2023-11-19T01:57:47;12.43;;;3.17;;
11735;SDS011;5924;51.398;7.088;2023-11-19T02:00:14;3.30;;;3.20;;
11735;SDS011;5924;51.398;7.088;2023-11-19T02:02:41;3.10;;;3.00;;
11735;SDS011;5924;51.398;7.088;2023-11-19T02:05:08;3.50;;;3.40;;
11735;SDS011;5924;51.398;7.088;2023-11-19T02:07:36;4.50;;;3.37;;
11735;SDS011;5924;51.398;7.088;2023-11-19T02:10:01;3.30;;;3.10;;
11735;SDS011;5924;51.398;7.088;2023-11-19T02:12:27;4.23;;;3.93;;
11735;SDS011;5924;51.398;7.088;2023-11-19T02:14:53;3.60;;;3.30;;
11735;SDS011;5924;51.398;7.088;2023-11-19T02:17:29;4.30;;;3.30;;
11735;SDS011;5924;51.398;7.088;2023-11-19T02:19:59;3.37;;;3.17;;
11735;SDS011;5924;51.398;7.088;2023-11-19T02:22:25;4.83;;;3.33;;
11735;SDS011;5924;51.398;7.088;2023-11-19T02:24:52;6.13;;;3.40;;
11735;SDS011;5924;51.398;7.088;2023-11-19T02:27:30;3.30;;;2.90;;
11735;SDS011;5924;51.398;7.088;2023-11-19T02:30:00;5.10;;;2.57;;
11735;SDS011;5924;51.398;7.088;2023-11-19T02:32:28;2.43;;;2.23;;
11735;SDS011;5924;51.398;7.088;2023-11-19T02:34:55;6.47;;;2.77;;
11735;SDS011;5924;51.398;7.088;2023-11-19T02:37:21;3.70;;;2.30;;
11735;SDS011;5924;51.398;7.088;2023-11-19T02:39:47;7.63;;;2.77;;
11735;SDS011;5924;51.398;7.088;2023-11-19T02:42:12;5.63;;;2.40;;
11735;SDS011;5924;51.398;7.088;2023-11-19T02:44:38;6.67;;;2.40;;
11735;SDS011;5924;51.398;7.088;2023-11-19T02:47:05;11.83;;;2.50;;
11735;SDS011;5924;51.398;7.088;2023-11-19T02:49:33;4.43;;;2.97;;
11735;SDS011;5924;51.398;7.088;2023-11-19T02:51:58;6.20;;;2.30;;
11735;SDS011;5924;51.398;7.088;2023-11-19T02:54:24;16.83;;;3.20;;
11735;SDS011;5924;51.398;7.088;2023-11-19T02:56:52;5.20;;;2.83;;
11735;SDS011;5924;51.398;7.088;2023-11-19T02:59:21;5.67;;;2.80;;
11735;SDS011;5924;51.398;7.088;2023-11-19T03:01:52;10.03;;;3.53;;
11735;SDS011;5924;51.398;7.088;2023-11-19T03:04:19;7.77;;;2.20;;
11735;SDS011;5924;51.398;7.088;2023-11-19T03:06:48;12.10;;;3.97;;
11735;SDS011;5924;51.398;7.088;2023-11-19T03:09:14;14.60;;;3.60;;
11735;SDS011;5924;51.398;7.088;2023-11-19T03:11:39;13.33;;;2.50;;
11735;SDS011;5924;51.398;7.088;2023-11-19T03:14:05;11.63;;;2.63;;
11735;SDS011;5924;51.398;7.088;2023-11-19T03:16:31;12.53;;;3.60;;
11735;SDS011;5924;51.398;7.088;2023-11-19T03:18:57;13.93;;;4.00;;
11735;SDS011;5924;51.398;7.088;2023-11-19T03:21:28;19.87;;;4.00;;
11735;SDS011;5924;51.398;7.088;2023-11-19T03:23:55;7.73;;;3.27;;
11735;SDS011;5924;51.398;7.088;2023-11-19T03:26:21;4.50;;;3.10;;
11735;SDS011;5924;51.398;7.088;2023-11-19T03:28:47;17.47;;;3.50;;
11735;SDS011;5924;51.398;7.088;2023-11-19T03:31:12;7.83;;;3.40;;
11735;SDS011;5924;51.398;7.088;2023-11-19T03:33:39;12.43;;;3.40;;
11735;SDS011;5924;51.398;7.088;2023-11-19T03:36:04;17.30;;;5.10;;
11735;SDS011;5924;51.398;7.088;2023-11-19T03:38:31;17.23;;;3.63;;
11735;SDS011;5924;51.398;7.088;2023-11-19T03:40:56;13.60;;;3.80;;
11735;SDS011;5924;51.398;7.088;2023-11-19T03:43:22;21.93;;;3.90;;
11735;SDS011;5924;51.398;7.088;2023-11-19T03:45:48;12.33;;;3.93;;
11735;SDS011;5924;51.398;7.088;2023-11-19T03:48:13;10.17;;;3.23;;
11735;SDS011;5924;51.398;7.088;2023-11-19T03:50:41;13.80;;;4.00;;
11735;SDS011;5924;51.398;7.088;2023-11-19T03:53:07;12.43;;;3.13;;
11735;SDS011;5924;51.398;7.088;2023-11-19T03:55:33;26.00;;;3.93;;
11735;SDS011;5924;51.398;7.088;2023-11-19T03:57:58;22.13;;;3.80;;
11735;SDS011;5924;51.398;7.088;2023-11-19T04:00:24;19.80;;;4.00;;
11735;SDS011;5924;51.398;7.088;2023-11-19T04:02:50;15.10;;;3.60;;
11735;SDS011;5924;51.398;7.088;2023-11-19T04:05:15;19.37;;;3.80;;
11735;SDS011;5924;51.398;7.088;2023-11-19T04:07:43;17.33;;;3.40;;
11735;SDS011;5924;51.398;7.088;2023-11-19T04:10:09;10.47;;;3.50;;
11735;SDS011;5924;51.398;7.088;2023-11-19T04:12:35;14.10;;;2.90;;
11735;SDS011;5924;51.398;7.088;2023-11-19T04:15:01;15.30;;;3.93;;
11735;SDS011;5924;51.398;7.088;2023-11-19T04:17:26;19.40;;;3.40;;
11735;SDS011;5924;51.398;7.088;2023-11-19T04:19:53;10.07;;;3.00;;
11735;SDS011;5924;51.398;7.088;2023-11-19T04:22:19;28.50;;;3.67;;
11735;SDS011;5924;51.398;7.088;2023-11-19T04:24:45;17.20;;;3.90;;
11735;SDS011;5924;51.398;7.088;2023-11-19T04:27:11;10.90;;;3.50;;
11735;SDS011;5924;51.398;7.088;2023-11-19T04:29:36;22.47;;;3.53;;
11735;SDS011;5924;51.398;7.088;2023-11-19T04:32:02;23.23;;;4.30;;
11735;SDS011;5924;51.398;7.088;2023-11-19T04:34:28;30.60;;;4.17;;
11735;SDS011;5924;51.398;7.088;2023-11-19T04:36:54;21.33;;;3.87;;
11735;SDS011;5924;51.398;7.088;2023-11-19T04:39:19;18.10;;;4.63;;
11735;SDS011;5924;51.398;7.088;2023-11-19T04:41:46;17.37;;;3.40;;
11735;SDS011;5924;51.398;7.088;2023-11-19T04:44:15;26.10;;;4.13;;
11735;SDS011;5924;51.398;7.088;2023-11-19T04:46:41;18.77;;;3.80;;
11735;SDS011;5924;51.398;7.088;2023-11-19T04:49:09;21.67;;;3.10;;
11735;SDS011;5924;51.398;7.088;2023-11-19T04:51:44;33.40;;;3.97;;
11735;SDS011;5924;51.398;7.088;2023-11-19T04:54:13;26.00;;;4.03;;
11735;SDS011;5924;51.398;7.088;2023-11-19T04:56:39;33.43;;;4.67;;
11735;SDS011;5924;51.398;7.088;2023-11-19T04:59:05;41.97;;;4.67;;
11735;SDS011;5924;51.398;7.088;2023-11-19T05:01:32;24.37;;;3.90;;
11735;SDS011;5924;51.398;7.088;2023-11-19T05:03:58;29.40;;;3.73;;
11735;SDS011;5924;51.398;7.088;2023-11-19T05:06:27;38.43;;;4.30;;
11735;SDS011;5924;51.398;7.088;2023-11-19T05:08:59;25.17;;;4.27;;
11735;SDS011;5924;51.398;7.088;2023-11-19T05:11:32;26.23;;;3.97;;
11735;SDS011;5924;51.398;7.088;2023-11-19T05:13:59;37.83;;;5.03;;
11735;SDS011;5924;51.398;7.088;2023-11-19T05:16:25;19.87;;;5.00;;
11735;SDS011;5924;51.398;7.088;2023-11-19T05:18:51;23.40;;;3.80;;
11735;SDS011;5924;51.398;7.088;2023-11-19T05:21:17;18.67;;;4.47;;
11735;SDS011;5924;51.398;7.088;2023-11-19T05:23:42;33.00;;;4.00;;
11735;SDS011;5924;51.398;7.088;2023-11-19T05:26:08;30.70;;;3.93;;
11735;SDS011;5924;51.398;7.088;2023-11-19T05:28:37;24.23;;;4.10;;
11735;SDS011;5924;51.398;7.088;2023-11-19T05:31:04;27.87;;;3.67;;
11735;SDS011;5924;51.398;7.088;2023-11-19T05:33:31;27.77;;;4.20;;
11735;SDS011;5924;51.398;7.088;2023-11-19T05:35:56;28.73;;;3.13;;
11735;SDS011;5924;51.398;7.088;2023-11-19T05:38:22;20.23;;;3.80;;
11735;SDS011;5924;51.398;7.088;2023-11-19T05:40:48;26.40;;;4.00;;
11735;SDS011;5924;51.398;7.088;2023-11-19T05:43:14;28.33;;;3.23;;
11735;SDS011;5924;51.398;7.088;2023-11-19T05:45:41;21.10;;;4.60;;
11735;SDS011;5924;51.398;7.088;2023-11-19T05:48:07;27.57;;;3.97;;
11735;SDS011;5924;51.398;7.088;2023-11-19T05:50:34;22.47;;;3.37;;
11735;SDS011;5924;51.398;7.088;2023-11-19T05:53:00;31.07;;;4.07;;
11735;SDS011;5924;51.398;7.088;2023-11-19T05:55:26;20.53;;;4.10;;
11735;SDS011;5924;51.398;7.088;2023-11-19T05:57:53;34.27;;;4.10;;
11735;SDS011;5924;51.398;7.088;2023-11-19T06:00:19;31.40;;;4.10;;
11735;SDS011;5924;51.398;7.088;2023-11-19T06:02:44;18.93;;;3.07;;
11735;SDS011;5924;51.398;7.088;2023-11-19T06:05:10;23.27;;;4.97;;
11735;SDS011;5924;51.398;7.088;2023-11-19T06:07:36;20.80;;;4.17;;
11735;SDS011;5924;51.398;7.088;2023-11-19T06:10:04;24.83;;;3.90;;
11735;SDS011;5924;51.398;7.088;2023-11-19T06:12:31;15.97;;;3.30;;
11735;SDS011;5924;51.398;7.088;2023-11-19T06:14:59;26.97;;;3.77;;
11735;SDS011;5924;51.398;7.088;2023-11-19T06:17:25;18.20;;;3.30;;
11735;SDS011;5924;51.398;7.088;2023-11-19T06:19:50;21.77;;;3.50;;
11735;SDS011;5924;51.398;7.088;2023-11-19T06:22:17;20.33;;;4.00;;
11735;SDS011;5924;51.398;7.088;2023-11-19T06:24:42;22.00;;;4.37;;
11735;SDS011;5924;51.398;7.088;2023-11-19T06:27:08;25.40;;;3.90;;
11735;SDS011;5924;51.398;7.088;2023-11-19T06:29:34;26.50;;;3.70;;
11735;SDS011;5924;51.398;7.088;2023-11-19T06:32:00;24.10;;;3.53;;
11735;SDS011;5924;51.398;7.088;2023-11-19T06:34:25;22.03;;;3.37;;
11735;SDS011;5924;51.398;7.088;2023-11-19T06:36:51;26.80;;;4.33;;
11735;SDS011;5924;51.398;7.088;2023-11-19T06:39:17;21.73;;;3.10;;
11735;SDS011;5924;51.398;7.088;2023-11-19T06:41:46;20.53;;;2.70;;
11735;SDS011;5924;51.398;7.088;2023-11-19T06:44:12;36.80;;;4.90;;
11735;SDS011;5924;51.398;7.088;2023-11-19T06:46:38;26.83;;;3.97;;
11735;SDS011;5924;51.398;7.088;2023-11-19T06:49:04;22.53;;;3.90;;
11735;SDS011;5924;51.398;7.088;2023-11-19T06:51:32;10.63;;;2.93;;
11735;SDS011;5924;51.398;7.088;2023-11-19T06:53:58;14.50;;;3.10;;
11735;SDS011;5924;51.398;7.088;2023-11-19T06:56:24;28.43;;;3.77;;
11735;SDS011;5924;51.398;7.088;2023-11-19T06:58:50;38.90;;;3.63;;
11735;SDS011;5924;51.398;7.088;2023-11-19T07:01:17;23.73;;;2.57;;
11735;SDS011;5924;51.398;7.088;2023-11-19T07:03:46;14.20;;;3.50;;
11735;SDS011;5924;51.398;7.088;2023-11-19T07:06:12;23.27;;;4.50;;
11735;SDS011;5924;51.398;7.088;2023-11-19T07:08:39;19.07;;;3.63;;
11735;SDS011;5924;51.398;7.088;2023-11-19T07:11:11;20.47;;;3.50;;
11735;SDS011;5924;51.398;7.088;2023-11-19T07:13:37;10.50;;;3.13;;
11735;SDS011;5924;51.398;7.088;2023-11-19T07:16:03;24.00;;;3.30;;
11735;SDS011;5924;51.398;7.088;2023-11-19T07:18:29;23.93;;;3.43;;
11735;SDS011;5924;51.398;7.088;2023-11-19T07:20:55;25.33;;;3.80;;
11735;SDS011;5924;51.398;7.088;2023-11-19T07:23:20;23.70;;;3.17;;
11735;SDS011;5924;51.398;7.088;2023-11-19T07:25:46;46.63;;;4.20;;
11735;SDS011;5924;51.398;7.088;2023-11-19T07:28:12;21.40;;;3.60;;
11735;SDS011;5924;51.398;7.088;2023-11-19T07:30:39;43.97;;;4.27;;
11735;SDS011;5924;51.398;7.088;2023-11-19T07:33:05;23.40;;;3.70;;
11735;SDS011;5924;51.398;7.088;2023-11-19T07:35:31;27.90;;;3.47;;
11735;SDS011;5924;51.398;7.088;2023-11-19T07:37:57;29.47;;;4.07;;
11735;SDS011;5924;51.398;7.088;2023-11-19T07:40:26;23.67;;;3.20;;
11735;SDS011;5924;51.398;7.088;2023-11-19T07:42:52;27.90;;;3.97;;
11735;SDS011;5924;51.398;7.088;2023-11-19T07:45:17;23.77;;;3.83;;
11735;SDS011;5924;51.398;7.088;2023-11-19T07:47:43;18.73;;;3.50;;
11735;SDS011;5924;51.398;7.088;2023-11-19T07:50:12;21.93;;;3.20;;
11735;SDS011;5924;51.398;7.088;2023-11-19T07:52:41;26.17;;;4.40;;
11735;SDS011;5924;51.398;7.088;2023-11-19T07:55:07;24.97;;;5.87;;
11735;SDS011;5924;51.398;7.088;2023-11-19T07:57:33;21.77;;;3.17;;
11735;SDS011;5924;51.398;7.088;2023-11-19T07:59:59;27.30;;;3.40;;
11735;SDS011;5924;51.398;7.088;2023-11-19T08:02:26;25.80;;;3.33;;
11735;SDS011;5924;51.398;7.088;2023-11-19T08:04:52;23.37;;;4.10;;
11735;SDS011;5924;51.398;7.088;2023-11-19T08:07:20;25.10;;;4.17;;
11735;SDS011;5924;51.398;7.088;2023-11-19T08:09:46;17.60;;;2.77;;
11735;SDS011;5924;51.398;7.088;2023-11-19T08:12:12;29.30;;;3.97;;
11735;SDS011;5924;51.398;7.088;2023-11-19T08:14:39;20.10;;;4.50;;
11735;SDS011;5924;51.398;7.088;2023-11-19T08:17:05;42.60;;;3.93;;
11735;SDS011;5924;51.398;7.088;2023-11-19T08:19:31;30.50;;;4.83;;
11735;SDS011;5924;51.398;7.088;2023-11-19T08:21:57;53.57;;;5.53;;
11735;SDS011;5924;51.398;7.088;2023-11-19T08:24:23;26.43;;;3.97;;
11735;SDS011;5924;51.398;7.088;2023-11-19T08:26:48;30.63;;;5.27;;
11735;SDS011;5924;51.398;7.088;2023-11-19T08:29:14;24.47;;;3.40;;
11735;SDS011;5924;51.398;7.088;2023-11-19T08:31:40;33.03;;;5.60;;
11735;SDS011;5924;51.398;7.088;2023-11-19T08:34:05;35.77;;;3.30;;
11735;SDS011;5924;51.398;7.088;2023-11-19T08:36:34;26.93;;;3.73;;
11735;SDS011;5924;51.398;7.088;2023-11-19T08:39:00;25.87;;;4.33;;
11735;SDS011;5924;51.398;7.088;2023-11-19T08:41:25;33.53;;;3.80;;
11735;SDS011;5924;51.398;7.088;2023-11-19T08:43:52;29.77;;;4.97;;
11735;SDS011;5924;51.398;7.088;2023-11-19T08:46:17;18.40;;;3.63;;
11735;SDS011;5924;51.398;7.088;2023-11-19T08:48:43;22.10;;;3.77;;
11735;SDS011;5924;51.398;7.088;2023-11-19T08:51:09;17.00;;;4.13;;
11735;SDS011;5924;51.398;7.088;2023-11-19T08:53:35;26.23;;;4.10;;
11735;SDS011;5924;51.398;7.088;2023-11-19T08:56:01;18.83;;;3.73;;
11735;SDS011;5924;51.398;7.088;2023-11-19T08:58:28;25.37;;;4.03;;
11735;SDS011;5924;51.398;7.088;2023-11-19T09:00:53;30.90;;;4.43;;
11735;SDS011;5924;51.398;7.088;2023-11-19T09:03:19;26.27;;;5.17;;
11735;SDS011;5924;51.398;7.088;2023-11-19T09:05:45;35.77;;;4.33;;
11735;SDS011;5924;51.398;7.088;2023-11-19T09:08:11;35.50;;;4.70;;
11735;SDS011;5924;51.398;7.088;2023-11-19T09:10:37;24.83;;;4.27;;
11735;SDS011;5924;51.398;7.088;2023-11-19T09:13:03;18.77;;;3.77;;
11735;SDS011;5924;51.398;7.088;2023-11-19T09:15:29;31.40;;;4.73;;
11735;SDS011;5924;51.398;7.088;2023-11-19T09:17:54;20.00;;;3.30;;
11735;SDS011;5924;51.398;7.088;2023-11-19T09:20:21;23.50;;;3.70;;
11735;SDS011;5924;51.398;7.088;2023-11-19T09:22:46;27.63;;;4.00;;
11735;SDS011;5924;51.398;7.088;2023-11-19T09:25:12;23.50;;;4.23;;
11735;SDS011;5924;51.398;7.088;2023-11-19T09:27:41;19.93;;;3.57;;
11735;SDS011;5924;51.398;7.088;2023-11-19T09:30:08;24.07;;;4.20;;
11735;SDS011;5924;51.398;7.088;2023-11-19T09:32:34;33.23;;;4.33;;
11735;SDS011;5924;51.398;7.088;2023-11-19T09:35:00;26.57;;;3.97;;
11735;SDS011;5924;51.398;7.088;2023-11-19T09:37:25;28.07;;;4.10;;
11735;SDS011;5924;51.398;7.088;2023-11-19T09:39:51;24.60;;;4.60;;
11735;SDS011;5924;51.398;7.088;2023-11-19T09:42:18;25.10;;;4.63;;
11735;SDS011;5924;51.398;7.088;2023-11-19T09:44:44;22.77;;;4.10;;
11735;SDS011;5924;51.398;7.088;2023-11-19T09:47:11;26.43;;;4.30;;
11735;SDS011;5924;51.398;7.088;2023-11-19T09:49:38;24.63;;;3.90;;
11735;SDS011;5924;51.398;7.088;2023-11-19T09:52:04;26.93;;;4.13;;
11735;SDS011;5924;51.398;7.088;2023-11-19T09:54:30;21.90;;;4.00;;
11735;SDS011;5924;51.398;7.088;2023-11-19T09:56:56;25.70;;;3.43;;
11735;SDS011;5924;51.398;7.088;2023-11-19T09:59:29;18.77;;;3.33;;
11735;SDS011;5924;51.398;7.088;2023-11-19T10:01:55;26.90;;;4.50;;
11735;SDS011;5924;51.398;7.088;2023-11-19T10:04:21;16.23;;;3.50;;
11735;SDS011;5924;51.398;7.088;2023-11-19T10:06:48;20.53;;;4.63;;
11735;SDS011;5924;51.398;7.088;2023-11-19T10:09:16;20.53;;;4.00;;
11735;SDS011;5924;51.398;7.088;2023-11-19T10:11:41;16.90;;;3.53;;
11735;SDS011;5924;51.398;7.088;2023-11-19T10:14:07;24.27;;;3.87;;
11735;SDS011;5924;51.398;7.088;2023-11-19T10:16:34;25.23;;;5.37;;
11735;SDS011;5924;51.398;7.088;2023-11-19T10:19:00;27.37;;;4.33;;
11735;SDS011;5924;51.398;7.088;2023-11-19T10:21:26;24.90;;;4.17;;
11735;SDS011;5924;51.398;7.088;2023-11-19T10:23:56;20.53;;;4.00;;
11735;SDS011;5924;51.398;7.088;2023-11-19T10:26:23;32.17;;;4.10;;
11735;SDS011;5924;51.398;7.088;2023-11-19T10:28:49;34.40;;;5.03;;
11735;SDS011;5924;51.398;7.088;2023-11-19T10:31:16;17.40;;;3.50;;
11735;SDS011;5924;51.398;7.088;2023-11-19T10:33:43;31.00;;;3.80;;
11735;SDS011;5924;51.398;7.088;2023-11-19T10:36:10;25.77;;;3.73;;
11735;SDS011;5924;51.398;7.088;2023-11-19T10:38:37;23.90;;;3.73;;
11735;SDS011;5924;51.398;7.088;2023-11-19T10:41:03;23.00;;;4.13;;
11735;SDS011;5924;51.398;7.088;2023-11-19T10:43:30;34.33;;;5.00;;
11735;SDS011;5924;51.398;7.088;2023-11-19T10:46:08;21.07;;;3.37;;
11735;SDS011;5924;51.398;7.088;2023-11-19T10:48:35;17.10;;;3.43;;
11735;SDS011;5924;51.398;7.088;2023-11-19T10:51:01;25.83;;;3.50;;
11735;SDS011;5924;51.398;7.088;2023-11-19T10:53:32;31.00;;;4.57;;
11735;SDS011;5924;51.398;7.088;2023-11-19T10:56:01;19.77;;;5.47;;
11735;SDS011;5924;51.398;7.088;2023-11-19T10:58:29;21.40;;;3.70;;
11735;SDS011;5924;51.398;7.088;2023-11-19T11:01:01;28.00;;;4.20;;
11735;SDS011;5924;51.398;7.088;2023-11-19T11:03:35;21.33;;;4.33;;
11735;SDS011;5924;51.398;7.088;2023-11-19T11:06:05;27.30;;;4.40;;
11735;SDS011;5924;51.398;7.088;2023-11-19T11:08:31;26.30;;;5.20;;
11735;SDS011;5924;51.398;7.088;2023-11-19T11:11:00;26.13;;;4.30;;
11735;SDS011;5924;51.398;7.088;2023-11-19T11:13:29;27.73;;;5.07;;
11735;SDS011;5924;51.398;7.088;2023-11-19T11:15:56;17.53;;;4.20;;
11735;SDS011;5924;51.398;7.088;2023-11-19T11:18:25;24.83;;;3.43;;
11735;SDS011;5924;51.398;7.088;2023-11-19T11:20:56;26.67;;;4.20;;
11735;SDS011;5924;51.398;7.088;2023-11-19T11:26:30;23.77;;;5.27;;
11735;SDS011;5924;51.398;7.088;2023-11-19T11:29:09;26.27;;;4.10;;
11735;SDS011;5924;51.398;7.088;2023-11-19T11:40:13;13.20;;;3.13;;
11735;SDS011;5924;51.398;7.088;2023-11-19T11:42:40;26.60;;;5.00;;
11735;SDS011;5924;51.398;7.088;2023-11-19T11:45:07;19.53;;;4.33;;
11735;SDS011;5924;51.398;7.088;2023-11-19T11:57:50;16.97;;;3.60;;
11735;SDS011;5924;51.398;7.088;2023-11-19T12:02:55;27.90;;;4.43;;
11735;SDS011;5924;51.398;7.088;2023-11-19T12:05:22;25.43;;;3.90;;
11735;SDS011;5924;51.398;7.088;2023-11-19T12:07:58;20.23;;;3.93;;
11735;SDS011;5924;51.398;7.088;2023-11-19T12:10:26;19.27;;;3.50;;
11735;SDS011;5924;51.398;7.088;2023-11-19T12:13:01;25.30;;;3.27;;
11735;SDS011;5924;51.398;7.088;2023-11-19T12:15:30;23.07;;;3.63;;
11735;SDS011;5924;51.398;7.088;2023-11-19T12:17:55;22.43;;;3.40;;
11735;SDS011;5924;51.398;7.088;2023-11-19T12:20:22;14.60;;;3.27;;
11735;SDS011;5924;51.398;7.088;2023-11-19T12:22:49;13.20;;;2.63;;
11735;SDS011;5924;51.398;7.088;2023-11-19T12:25:17;17.63;;;4.60;;
11735;SDS011;5924;51.398;7.088;2023-11-19T12:27:48;14.00;;;2.60;;
11735;SDS011;5924;51.398;7.088;2023-11-19T12:30:20;20.77;;;3.00;;
11735;SDS011;5924;51.398;7.088;2023-11-19T12:32:50;19.13;;;3.13;;
11735;SDS011;5924;51.398;7.088;2023-11-19T12:35:18;20.80;;;5.50;;
11735;SDS011;5924;51.398;7.088;2023-11-19T12:37:45;25.00;;;4.00;;
11735;SDS011;5924;51.398;7.088;2023-11-19T12:40:13;19.37;;;4.17;;
11735;SDS011;5924;51.398;7.088;2023-11-19T12:42:47;16.37;;;3.70;;
11735;SDS011;5924;51.398;7.088;2023-11-19T12:45:13;13.90;;;2.93;;
11735;SDS011;5924;51.398;7.088;2023-11-19T12:47:42;25.33;;;3.80;;
11735;SDS011;5924;51.398;7.088;2023-11-19T12:50:08;11.70;;;2.70;;
11735;SDS011;5924;51.398;7.088;2023-11-19T12:52:35;14.50;;;2.87;;
11735;SDS011;5924;51.398;7.088;2023-11-19T12:55:03;15.77;;;2.50;;
11735;SDS011;5924;51.398;7.088;2023-11-19T12:57:48;27.13;;;3.53;;
11735;SDS011;5924;51.398;7.088;2023-11-19T13:00:20;11.83;;;3.20;;
11735;SDS011;5924;51.398;7.088;2023-11-19T13:02:51;15.33;;;2.73;;
11735;SDS011;5924;51.398;7.088;2023-11-19T13:07:46;22.53;;;3.40;;
11735;SDS011;5924;51.398;7.088;2023-11-19T13:10:12;20.83;;;2.80;;
11735;SDS011;5924;51.398;7.088;2023-11-19T13:12:38;11.97;;;2.47;;
11735;SDS011;5924;51.398;7.088;2023-11-19T13:15:04;19.87;;;2.70;;
11735;SDS011;5924;51.398;7.088;2023-11-19T13:17:30;12.27;;;2.90;;
11735;SDS011;5924;51.398;7.088;2023-11-19T13:19:56;11.03;;;2.67;;
11735;SDS011;5924;51.398;7.088;2023-11-19T13:22:22;11.93;;;2.30;;
11735;SDS011;5924;51.398;7.088;2023-11-19T13:24:48;11.20;;;3.17;;
11735;SDS011;5924;51.398;7.088;2023-11-19T13:27:13;13.23;;;3.07;;
11735;SDS011;5924;51.398;7.088;2023-11-19T13:29:39;18.47;;;3.17;;
11735;SDS011;5924;51.398;7.088;2023-11-19T13:32:05;24.23;;;2.90;;
11735;SDS011;5924;51.398;7.088;2023-11-19T13:34:31;14.23;;;2.57;;
11735;SDS011;5924;51.398;7.088;2023-11-19T13:36:56;10.67;;;2.27;;
11735;SDS011;5924;51.398;7.088;2023-11-19T13:39:22;23.23;;;3.60;;
11735;SDS011;5924;51.398;7.088;2023-11-19T13:41:49;19.13;;;2.87;;
11735;SDS011;5924;51.398;7.088;2023-11-19T13:44:15;12.17;;;2.73;;
11735;SDS011;5924;51.398;7.088;2023-11-19T13:46:44;11.93;;;3.27;;
11735;SDS011;5924;51.398;7.088;2023-11-19T13:49:11;21.03;;;2.97;;
11735;SDS011;5924;51.398;7.088;2023-11-19T13:51:36;18.90;;;3.93;;
11735;SDS011;5924;51.398;7.088;2023-11-19T13:54:02;17.70;;;3.30;;
11735;SDS011;5924;51.398;7.088;2023-11-19T13:56:28;10.60;;;3.70;;
11735;SDS011;5924;51.398;7.088;2023-11-19T13:58:53;11.10;;;3.37;;
11735;SDS011;5924;51.398;7.088;2023-11-19T14:01:19;17.50;;;3.90;;
11735;SDS011;5924;51.398;7.088;2023-11-19T14:03:45;27.90;;;4.47;;
11735;SDS011;5924;51.398;7.088;2023-11-19T14:06:10;20.70;;;3.57;;
11735;SDS011;5924;51.398;7.088;2023-11-19T14:08:37;14.87;;;2.67;;
11735;SDS011;5924;51.398;7.088;2023-11-19T14:11:03;15.17;;;3.13;;
11735;SDS011;5924;51.398;7.088;2023-11-19T14:13:30;15.87;;;3.50;;
11735;SDS011;5924;51.398;7.088;2023-11-19T14:15:56;17.37;;;3.20;;
11735;SDS011;5924;51.398;7.088;2023-11-19T14:18:21;14.23;;;2.50;;
11735;SDS011;5924;51.398;7.088;2023-11-19T14:20:48;22.00;;;2.80;;
11735;SDS011;5924;51.398;7.088;2023-11-19T14:23:13;28.40;;;2.80;;
11735;SDS011;5924;51.398;7.088;2023-11-19T14:25:39;15.93;;;2.50;;
11735;SDS011;5924;51.398;7.088;2023-11-19T14:28:05;15.60;;;3.80;;
11735;SDS011;5924;51.398;7.088;2023-11-19T14:30:30;14.70;;;3.10;;
11735;SDS011;5924;51.398;7.088;2023-11-19T14:32:56;31.37;;;4.70;;
11735;SDS011;5924;51.398;7.088;2023-11-19T14:35:22;17.17;;;3.40;;
11735;SDS011;5924;51.398;7.088;2023-11-19T14:37:47;21.27;;;3.77;;
11735;SDS011;5924;51.398;7.088;2023-11-19T14:40:14;16.03;;;2.90;;
11735;SDS011;5924;51.398;7.088;2023-11-19T14:42:39;15.73;;;3.33;;
11735;SDS011;5924;51.398;7.088;2023-11-19T14:45:05;16.17;;;3.80;;
11735;SDS011;5924;51.398;7.088;2023-11-19T14:47:32;18.93;;;3.20;;
11735;SDS011;5924;51.398;7.088;2023-11-19T14:49:57;27.10;;;4.47;;
11735;SDS011;5924;51.398;7.088;2023-11-19T14:52:23;20.30;;;4.30;;
11735;SDS011;5924;51.398;7.088;2023-11-19T14:54:49;17.77;;;2.90;;
11735;SDS011;5924;51.398;7.088;2023-11-19T14:57:16;23.03;;;3.20;;
11735;SDS011;5924;51.398;7.088;2023-11-19T14:59:42;27.53;;;4.23;;
11735;SDS011;5924;51.398;7.088;2023-11-19T15:02:07;19.73;;;4.20;;
11735;SDS011;5924;51.398;7.088;2023-11-19T15:04:33;13.53;;;2.80;;
11735;SDS011;5924;51.398;7.088;2023-11-19T15:06:59;17.17;;;3.10;;
11735;SDS011;5924;51.398;7.088;2023-11-19T15:09:25;18.57;;;3.07;;
11735;SDS011;5924;51.398;7.088;2023-11-19T15:11:54;16.53;;;3.70;;
11735;SDS011;5924;51.398;7.088;2023-11-19T15:14:20;25.87;;;3.40;;